Time;durP1;ratioP1;P1;durP2;ratioP2;P2;SDS_P1;SDS_P2;PMS_P1;PMS_P2;Temp;Humidity;BMP_temperature;BMP_pressure;BME280_temperature;BME280_humidity;BME280_pressure;Samples;Min_cycle;Max_cycle;Signal;HPM_P1;HPM_P2
2022/06/16 00:02:10;;;;;;;2.93;2.40;;;17.50;71.70;;;;;;4965580;28;20238;-64
2022/06/16 00:04:36;;;;;;;3.97;2.53;;;17.40;72.30;;;;;;4967258;28;20207;-63
2022/06/16 00:07:02;;;;;;;5.90;3.23;;;17.40;73.10;;;;;;4965413;28;20217;-65
2022/06/16 00:09:27;;;;;;;6.67;3.00;;;17.30;73.70;;;;;;4966946;28;20203;-64
2022/06/16 00:11:54;;;;;;;2.73;2.53;;;17.30;74.60;;;;;;4965540;28;20205;-64
2022/06/16 00:14:19;;;;;;;2.83;2.60;;;17.20;75.20;;;;;;4966555;28;20561;-63
2022/06/16 00:16:45;;;;;;;3.57;2.60;;;17.10;76.60;;;;;;4964787;28;21070;-63
2022/06/16 00:19:11;;;;;;;5.37;2.70;;;17.10;77.90;;;;;;4967391;28;20577;-63
2022/06/16 00:21:37;;;;;;;5.37;3.50;;;17.00;78.10;;;;;;4964935;28;20249;-64
2022/06/16 00:24:02;;;;;;;5.40;3.43;;;17.00;78.80;;;;;;4966866;28;20194;-64
2022/06/16 00:26:28;;;;;;;3.37;3.07;;;17.00;79.50;;;;;;4965138;28;20216;-64
2022/06/16 00:28:54;;;;;;;4.90;2.40;;;17.00;80.10;;;;;;4949451;28;20288;-65
2022/06/16 00:31:22;;;;;;;3.43;2.80;;;16.90;80.60;;;;;;4964559;28;20214;-65
2022/06/16 00:33:48;;;;;;;3.60;3.30;;;16.90;82.30;;;;;;4966765;28;20214;-62
2022/06/16 00:36:14;;;;;;;4.70;3.00;;;16.80;84.10;;;;;;4964727;28;20232;-64
2022/06/16 00:38:40;;;;;;;4.73;2.40;;;16.80;84.60;;;;;;4966346;28;20818;-62
2022/06/16 00:41:06;;;;;;;3.47;2.70;;;16.80;84.60;;;;;;4964513;28;20208;-62
2022/06/16 00:43:32;;;;;;;4.93;3.03;;;16.80;85.40;;;;;;4966750;28;20224;-63
2022/06/16 00:46:03;;;;;;;4.90;2.47;;;16.70;86.40;;;;;;4964502;28;20690;-62
2022/06/16 00:48:53;;;;;;;2.63;2.43;;;16.70;87.70;;;;;;4966230;28;20217;-63
2022/06/16 00:51:40;;;;;;;3.73;2.33;;;16.70;88.20;;;;;;4958252;28;20370;-62
2022/06/16 00:54:26;;;;;;;2.63;2.43;;;16.60;89.60;;;;;;4966083;28;20210;-62
2022/06/16 00:56:56;;;;;;;5.63;2.47;;;16.60;90.60;;;;;;4964194;28;20210;-63
2022/06/16 00:59:22;;;;;;;3.70;2.57;;;16.60;90.90;;;;;;4966032;28;20193;-63
2022/06/16 01:01:48;;;;;;;6.37;2.97;;;16.60;91.50;;;;;;4964324;28;20237;-63
2022/06/16 01:07:03;;;;;;;3.20;2.30;;;16.50;92.80;;;;;;4962894;28;20221;-63
2022/06/16 01:09:31;;;;;;;4.20;2.30;;;16.50;93.40;;;;;;4965926;28;20198;-64
2022/06/16 01:15:37;;;;;;;3.53;2.53;;;16.40;95.40;;;;;;4964457;28;20600;-63
2022/06/16 01:18:31;;;;;;;5.37;2.87;;;16.30;96.30;;;;;;4965776;28;20200;-63
2022/06/16 01:21:02;;;;;;;3.43;2.73;;;16.30;97.40;;;;;;4954662;28;20583;-64
2022/06/16 01:23:52;;;;;;;3.87;2.80;;;16.20;97.80;;;;;;4965989;28;20583;-64
2022/06/16 01:26:29;;;;;;;4.30;3.33;;;16.20;98.60;;;;;;4956550;28;20293;-63
2022/06/16 01:29:00;;;;;;;3.07;2.77;;;16.20;99.40;;;;;;4966223;28;20293;-63
2022/06/16 01:31:39;;;;;;;4.80;2.83;;;16.10;99.90;;;;;;4963699;28;20292;-63
2022/06/16 01:34:10;;;;;;;3.40;2.90;;;16.00;99.90;;;;;;4956229;28;20222;-63
2022/06/16 01:36:58;;;;;;;4.23;3.13;;;16.00;99.90;;;;;;4959717;28;20216;-63
2022/06/16 01:40:02;;;;;;;5.10;3.00;;;15.90;99.90;;;;;;4946909;29;20288;-63
2022/06/16 01:42:40;;;;;;;3.43;3.03;;;15.90;99.90;;;;;;4901775;29;20212;-62
2022/06/16 01:45:20;;;;;;;4.87;3.40;;;15.90;99.90;;;;;;4954838;28;20219;-63
2022/06/16 01:47:49;;;;;;;5.20;3.50;;;15.90;99.90;;;;;;4965929;28;20198;-62
2022/06/16 01:50:21;;;;;;;5.33;3.60;;;15.90;99.90;;;;;;4963653;28;20206;-62
2022/06/16 01:52:57;;;;;;;5.10;3.17;;;16.00;99.90;;;;;;4965676;28;20194;-62
2022/06/16 01:55:29;;;;;;;4.57;3.80;;;15.90;99.90;;;;;;4949549;28;20264;-62
2022/06/16 01:58:02;;;;;;;3.67;3.30;;;15.90;99.90;;;;;;4965692;28;20189;-62
2022/06/16 02:00:28;;;;;;;4.10;3.33;;;15.90;99.90;;;;;;4950137;28;20235;-63
2022/06/16 02:03:08;;;;;;;5.37;4.10;;;15.80;99.90;;;;;;4965268;28;20182;-62
2022/06/16 02:05:40;;;;;;;6.33;3.80;;;15.80;99.90;;;;;;4955306;28;20210;-62
2022/06/16 02:08:15;;;;;;;6.30;4.87;;;15.80;99.90;;;;;;4965384;28;20189;-62
2022/06/16 02:10:51;;;;;;;3.40;3.10;;;15.70;99.90;;;;;;4958844;28;20671;-62
2022/06/16 02:13:21;;;;;;;8.17;5.23;;;15.70;99.90;;;;;;4946578;29;20205;-62
2022/06/16 02:16:16;;;;;;;5.47;4.87;;;15.60;99.90;;;;;;4963634;28;20221;-63
2022/06/16 02:18:44;;;;;;;4.97;3.57;;;15.50;99.90;;;;;;4956663;28;20191;-62
2022/06/16 02:21:33;;;;;;;4.93;3.83;;;15.60;99.90;;;;;;4963628;28;20225;-62
2022/06/16 02:23:59;;;;;;;3.47;3.17;;;15.60;99.90;;;;;;4963082;28;21014;-62
2022/06/16 02:26:25;;;;;;;10.37;4.57;;;15.60;99.90;;;;;;4963450;28;20296;-63
2022/06/16 02:28:55;;;;;;;4.40;3.60;;;15.60;99.90;;;;;;4965197;28;20303;-62
2022/06/16 02:31:24;;;;;;;4.23;3.83;;;15.60;99.90;;;;;;4964658;28;20245;-62
2022/06/16 02:34:04;;;;;;;3.90;3.27;;;15.50;99.90;;;;;;4961466;28;20565;-62
2022/06/16 02:36:35;;;;;;;10.97;3.90;;;15.50;99.90;;;;;;4947095;28;20193;-63
2022/06/16 02:39:09;;;;;;;6.13;3.23;;;15.60;99.90;;;;;;4965625;28;20668;-62
2022/06/16 02:41:59;;;;;;;5.07;3.93;;;15.60;99.90;;;;;;4952013;28;20252;-62
2022/06/16 02:44:49;;;;;;;3.90;3.60;;;15.50;99.90;;;;;;4949685;29;20231;-63
2022/06/16 02:47:57;;;;;;;4.03;3.73;;;15.50;99.90;;;;;;4952297;28;20214;-63
2022/06/16 02:50:46;;;;;;;4.50;3.33;;;15.50;99.90;;;;;;4951683;28;20200;-63
2022/06/16 02:56:15;;;;;;;5.03;3.90;;;15.50;99.90;;;;;;4963915;28;20252;-63
2022/06/16 02:58:43;;;;;;;7.03;4.17;;;15.50;99.90;;;;;;4967437;28;20217;-63
2022/06/16 03:01:10;;;;;;;4.90;4.10;;;15.40;99.90;;;;;;4968168;28;20256;-64
2022/06/16 03:03:36;;;;;;;4.27;3.87;;;15.40;99.90;;;;;;4966790;28;20251;-63
2022/06/16 03:06:03;;;;;;;7.23;4.23;;;15.40;99.90;;;;;;4968616;28;20259;-63
2022/06/16 03:08:30;;;;;;;5.93;4.27;;;15.30;99.90;;;;;;4966804;28;20209;-63
2022/06/16 03:10:58;;;;;;;5.10;4.00;;;15.30;99.90;;;;;;4968462;28;20665;-63
2022/06/16 03:13:32;;;;;;;4.70;3.70;;;15.30;99.90;;;;;;4966465;28;20338;-64
2022/06/16 03:15:59;;;;;;;4.60;4.03;;;15.30;99.90;;;;;;4967751;28;20197;-60
2022/06/16 03:18:25;;;;;;;6.03;4.20;;;15.30;99.90;;;;;;4966457;28;20233;-63
2022/06/16 03:20:51;;;;;;;4.87;3.60;;;15.40;99.90;;;;;;4968067;28;20675;-62
2022/06/16 03:23:17;;;;;;;5.03;3.83;;;15.40;99.90;;;;;;4966141;28;20301;-62
2022/06/16 03:25:43;;;;;;;7.37;5.43;;;15.40;99.90;;;;;;4950262;28;20222;-62
2022/06/16 03:28:09;;;;;;;5.97;4.03;;;15.50;99.90;;;;;;4966429;28;20240;-62
2022/06/16 03:30:36;;;;;;;6.50;4.03;;;15.50;99.90;;;;;;4967849;28;20210;-62
2022/06/16 03:33:03;;;;;;;5.73;4.27;;;15.50;99.90;;;;;;4965937;28;20210;-62
2022/06/16 03:35:29;;;;;;;6.80;4.13;;;15.50;99.90;;;;;;4967901;28;20205;-63
2022/06/16 03:37:55;;;;;;;5.57;3.37;;;15.50;99.90;;;;;;4965735;28;20835;-62
2022/06/16 03:40:22;;;;;;;4.30;3.90;;;15.50;99.90;;;;;;4967964;28;20276;-62
2022/06/16 03:42:48;;;;;;;4.23;3.83;;;15.50;99.90;;;;;;4965808;28;20204;-63
2022/06/16 03:45:15;;;;;;;4.00;3.60;;;15.50;99.90;;;;;;4967654;28;20193;-63
2022/06/16 03:47:40;;;;;;;6.17;3.60;;;15.40;99.90;;;;;;4965399;28;20261;-63
2022/06/16 03:50:07;;;;;;;4.57;3.83;;;15.40;99.90;;;;;;4966640;28;20620;-63
2022/06/16 03:52:33;;;;;;;4.87;4.30;;;15.40;99.90;;;;;;4965683;28;20201;-63
2022/06/16 03:54:58;;;;;;;4.77;4.30;;;15.50;99.90;;;;;;4967423;28;20232;-63
2022/06/16 03:57:24;;;;;;;5.37;4.20;;;15.60;99.90;;;;;;4965992;28;20633;-63
2022/06/16 03:59:49;;;;;;;3.83;3.33;;;15.60;99.90;;;;;;4967614;28;20193;-61
2022/06/16 04:02:15;;;;;;;6.27;4.10;;;15.60;99.90;;;;;;4965615;28;20197;-61
2022/06/16 04:04:41;;;;;;;6.33;3.70;;;15.60;99.90;;;;;;4967131;28;20831;-62
2022/06/16 04:07:09;;;;;;;6.40;3.77;;;15.50;99.90;;;;;;4965241;28;20203;-62
2022/06/16 04:09:35;;;;;;;5.97;4.53;;;15.60;99.90;;;;;;4965917;28;20190;-63
2022/06/16 04:12:02;;;;;;;10.47;3.50;;;15.60;99.90;;;;;;4963406;28;20217;-63
2022/06/16 04:14:27;;;;;;;5.13;4.20;;;15.60;99.90;;;;;;4967321;28;20576;-64
2022/06/16 04:16:53;;;;;;;4.47;3.50;;;15.60;99.90;;;;;;4960221;28;20605;-62
2022/06/16 04:19:21;;;;;;;5.70;3.80;;;15.60;99.90;;;;;;4967487;28;20191;-63
2022/06/16 04:21:48;;;;;;;4.33;4.00;;;15.60;99.90;;;;;;4964981;28;20205;-63
2022/06/16 04:24:15;;;;;;;6.57;4.37;;;15.70;99.90;;;;;;4967068;28;20703;-63
2022/06/16 04:26:41;;;;;;;4.00;3.70;;;15.70;99.90;;;;;;4966701;28;20308;-64
2022/06/16 04:29:09;;;;;;;4.17;3.73;;;15.70;99.90;;;;;;4965398;28;20206;-63
2022/06/16 04:31:35;;;;;;;4.83;3.77;;;15.70;99.90;;;;;;4966644;28;20290;-63
2022/06/16 04:34:01;;;;;;;5.80;3.80;;;15.80;99.90;;;;;;4964797;28;20863;-62
2022/06/16 04:36:27;;;;;;;4.27;3.87;;;15.80;99.90;;;;;;4966706;28;20699;-62
2022/06/16 04:38:54;;;;;;;7.73;4.70;;;15.90;99.90;;;;;;4964716;28;20238;-62
2022/06/16 04:41:20;;;;;;;5.00;3.87;;;16.00;99.90;;;;;;4966747;28;20700;-62
2022/06/16 04:43:45;;;;;;;3.80;3.33;;;16.10;99.90;;;;;;4964867;28;20218;-62
2022/06/16 04:46:15;;;;;;;5.00;3.53;;;16.10;99.90;;;;;;4966558;28;20208;-63
2022/06/16 04:48:43;;;;;;;5.13;4.30;;;16.00;99.90;;;;;;4964625;28;20279;-60
2022/06/16 04:51:09;;;;;;;7.00;3.37;;;16.10;99.90;;;;;;4966623;28;20201;-61
2022/06/16 04:53:35;;;;;;;4.63;3.77;;;16.00;99.90;;;;;;4964831;28;20223;-61
2022/06/16 04:56:02;;;;;;;6.63;3.83;;;16.00;99.90;;;;;;4965026;28;20331;-60
2022/06/16 04:58:29;;;;;;;4.43;3.87;;;16.10;99.90;;;;;;4966481;28;20238;-61
2022/06/16 05:00:54;;;;;;;3.33;3.00;;;16.10;99.90;;;;;;4963956;28;20711;-62
2022/06/16 05:03:22;;;;;;;7.83;5.37;;;16.20;99.90;;;;;;4954618;28;20203;-63
2022/06/16 05:05:49;;;;;;;6.00;3.53;;;16.20;99.90;;;;;;4963675;28;20673;-62
2022/06/16 05:08:16;;;;;;;3.43;3.10;;;16.20;99.90;;;;;;4966089;28;20197;-62
2022/06/16 05:10:44;;;;;;;4.87;2.73;;;16.40;99.90;;;;;;4963940;28;20233;-63
2022/06/16 05:13:10;;;;;;;5.00;4.00;;;16.40;99.90;;;;;;4965916;28;20220;-62
2022/06/16 05:15:35;;;;;;;6.90;3.33;;;16.50;99.90;;;;;;4964119;28;20217;-62
2022/06/16 05:18:02;;;;;;;5.07;3.27;;;16.50;99.90;;;;;;4965567;28;20205;-62
2022/06/16 05:20:28;;;;;;;4.10;3.40;;;16.60;99.90;;;;;;4963646;28;20719;-63
2022/06/16 05:22:53;;;;;;;3.57;3.30;;;16.60;99.90;;;;;;4965711;28;20874;-64
2022/06/16 05:25:19;;;;;;;6.13;3.17;;;16.70;99.90;;;;;;4964112;28;20206;-63
2022/06/16 05:27:44;;;;;;;4.23;3.00;;;16.80;99.90;;;;;;4965522;28;20731;-62
2022/06/16 05:30:10;;;;;;;5.03;3.00;;;17.00;99.90;;;;;;4963759;28;20198;-62
2022/06/16 05:32:35;;;;;;;7.20;4.00;;;17.00;99.90;;;;;;4965590;28;20241;-61
2022/06/16 05:35:01;;;;;;;4.03;3.40;;;17.10;99.90;;;;;;4963756;28;20607;-62
2022/06/16 05:37:27;;;;;;;4.10;2.87;;;17.10;99.90;;;;;;4965688;28;20204;-62
2022/06/16 05:39:52;;;;;;;4.67;4.03;;;17.30;99.90;;;;;;4963528;28;20259;-63
2022/06/16 05:42:18;;;;;;;6.90;3.30;;;17.50;99.90;;;;;;4965852;28;20205;-61
2022/06/16 05:44:44;;;;;;;4.80;2.97;;;17.60;99.90;;;;;;4962939;28;20212;-68
2022/06/16 05:47:10;;;;;;;3.70;3.40;;;17.60;99.90;;;;;;4965376;28;20232;-68
2022/06/16 05:49:38;;;;;;;3.13;2.50;;;17.60;99.90;;;;;;4963419;28;20205;-67
2022/06/16 05:52:07;;;;;;;4.57;2.90;;;17.60;99.90;;;;;;4965228;28;20308;-67
2022/06/16 05:54:32;;;;;;;5.50;3.83;;;17.60;99.90;;;;;;4963509;28;20216;-73
2022/06/16 05:56:58;;;;;;;5.57;2.70;;;17.60;99.90;;;;;;4964990;28;20191;-67
2022/06/16 05:59:23;;;;;;;3.07;2.77;;;17.60;99.90;;;;;;4963396;28;20299;-68
2022/06/16 06:01:49;;;;;;;9.03;3.30;;;17.70;99.90;;;;;;4965266;28;20243;-68
2022/06/16 06:04:14;;;;;;;4.03;2.77;;;17.90;99.90;;;;;;4963528;28;20193;-69
2022/06/16 06:06:41;;;;;;;3.70;2.87;;;18.00;99.90;;;;;;4965325;28;20212;-67
2022/06/16 06:17:22;;;;;;;3.20;2.90;;;18.50;99.90;;;;;;4968523;28;20305;-68
2022/06/16 06:19:48;;;;;;;3.13;2.83;;;18.60;99.90;;;;;;4967057;28;20846;-70
2022/06/16 06:22:19;;;;;;;4.10;2.80;;;18.70;99.90;;;;;;4969030;28;20219;-67
2022/06/16 06:24:50;;;;;;;5.23;2.67;;;19.00;99.90;;;;;;4955560;28;20254;-68
2022/06/16 06:27:41;;;;;;;4.70;2.70;;;19.30;99.90;;;;;;4969091;28;20208;-68
2022/06/16 06:30:21;;;;;;;5.23;3.00;;;19.40;99.80;;;;;;4956488;28;20279;-69
2022/06/16 06:32:47;;;;;;;4.97;2.40;;;19.50;99.90;;;;;;4969045;28;20197;-67
2022/06/16 06:35:15;;;;;;;5.27;2.30;;;19.90;98.70;;;;;;4967014;28;20212;-66
2022/06/16 06:37:41;;;;;;;5.03;2.60;;;19.90;98.50;;;;;;4968661;28;20284;-66
2022/06/16 06:40:08;;;;;;;7.30;2.60;;;19.80;98.60;;;;;;4967107;28;20700;-67
2022/06/16 06:42:34;;;;;;;7.27;2.50;;;19.80;99.00;;;;;;4968832;28;20209;-66
2022/06/16 06:44:59;;;;;;;4.87;2.87;;;19.80;98.70;;;;;;4966764;28;20216;-67
2022/06/16 06:47:29;;;;;;;3.30;2.70;;;19.80;98.30;;;;;;4968266;28;20205;-65
2022/06/16 06:49:55;;;;;;;6.83;2.87;;;19.70;98.50;;;;;;4956564;28;20212;-66
2022/06/16 06:52:21;;;;;;;4.20;3.53;;;19.70;98.60;;;;;;4968159;28;20204;-68
2022/06/16 06:54:48;;;;;;;2.90;2.60;;;19.80;98.30;;;;;;4966818;28;20228;-67
2022/06/16 06:57:21;;;;;;;3.73;2.70;;;19.80;98.40;;;;;;4968121;28;20197;-67
2022/06/16 06:59:46;;;;;;;5.13;2.10;;;20.00;98.30;;;;;;4957923;28;20248;-65
2022/06/16 07:02:14;;;;;;;3.80;2.67;;;20.20;97.80;;;;;;4967785;28;20249;-67
2022/06/16 07:04:41;;;;;;;3.53;2.20;;;20.50;97.30;;;;;;4966145;28;20289;-66
2022/06/16 07:07:10;;;;;;;6.60;2.87;;;20.70;96.70;;;;;;4968004;28;20273;-68
2022/06/16 07:09:36;;;;;;;4.70;2.73;;;21.00;96.50;;;;;;4965641;28;20573;-66
2022/06/16 07:12:03;;;;;;;5.82;3.17;;;21.20;96.10;;;;;;4967566;28;20213;-66
2022/06/16 07:14:31;;;;;;;3.00;2.67;;;21.40;95.40;;;;;;4966036;28;20322;-78
2022/06/16 07:16:57;;;;;;;4.73;2.97;;;21.50;95.30;;;;;;4967816;28;20193;-67
2022/06/16 07:19:22;;;;;;;5.90;2.87;;;21.60;95.10;;;;;;4957578;28;20202;-67
2022/06/16 07:21:48;;;;;;;4.23;3.20;;;21.70;94.00;;;;;;4966519;28;20177;-66
2022/06/16 07:24:16;;;;;;;4.13;3.23;;;21.60;93.80;;;;;;4964564;28;20551;-67
2022/06/16 07:26:42;;;;;;;5.63;2.23;;;21.40;93.60;;;;;;4967267;28;20189;-66
2022/06/16 07:29:07;;;;;;;3.85;2.35;;;21.30;94.10;;;;;;4965488;28;20224;-67
2022/06/16 07:31:33;;;;;;;3.50;2.97;;;21.20;94.60;;;;;;4968222;28;20192;-66
2022/06/16 07:33:58;;;;;;;4.40;2.80;;;21.20;94.50;;;;;;4965521;28;20202;-68
2022/06/16 07:36:24;;;;;;;3.58;2.00;;;21.30;93.90;;;;;;4967915;28;20675;-66
2022/06/16 07:38:50;;;;;;;4.57;2.43;;;21.40;93.90;;;;;;4966044;28;20601;-68
2022/06/16 07:41:31;;;;;;;2.40;2.00;;;21.50;93.90;;;;;;4967783;28;20197;-70
2022/06/16 07:43:57;;;;;;;3.07;2.40;;;21.60;93.60;;;;;;4959223;28;20220;-69
2022/06/16 07:46:24;;;;;;;4.07;2.47;;;21.60;93.40;;;;;;4967472;28;20196;-72
2022/06/16 07:48:51;;;;;;;6.47;2.27;;;21.60;93.10;;;;;;4965751;28;20700;-75
2022/06/16 07:51:17;;;;;;;3.35;2.70;;;21.60;93.20;;;;;;4967593;28;20186;-75
2022/06/16 07:53:42;;;;;;;4.57;2.80;;;21.70;93.20;;;;;;4967192;28;20205;-74
2022/06/16 07:56:08;;;;;;;5.90;2.70;;;21.80;92.80;;;;;;4965347;28;20202;-71
2022/06/16 07:58:34;;;;;;;3.43;2.53;;;21.80;93.00;;;;;;4967099;28;20198;-62
2022/06/16 08:00:59;;;;;;;2.70;2.45;;;21.80;92.50;;;;;;4965881;28;20253;-64
2022/06/16 08:03:29;;;;;;;6.80;2.40;;;21.60;92.50;;;;;;4980384;28;20197;-64
2022/06/16 08:05:56;;;;;;;2.97;2.28;;;21.50;92.60;;;;;;4965266;28;20401;-64
2022/06/16 08:08:23;;;;;;;5.70;2.38;;;21.50;92.90;;;;;;4966989;28;20331;-64
2022/06/16 08:10:52;;;;;;;6.00;2.50;;;21.60;92.80;;;;;;4971065;28;20209;-62
2022/06/16 08:13:19;;;;;;;3.17;2.60;;;21.70;92.70;;;;;;4966901;28;20190;-63
2022/06/16 08:15:46;;;;;;;5.73;3.23;;;21.70;92.30;;;;;;4964699;28;20296;-65
2022/06/16 08:18:14;;;;;;;3.85;2.85;;;21.70;91.60;;;;;;4966372;28;20205;-84
2022/06/16 08:20:41;;;;;;;3.20;2.40;;;21.70;91.60;;;;;;4964703;28;20210;-68
2022/06/16 08:23:06;;;;;;;2.63;1.93;;;21.70;92.00;;;;;;4966566;28;20197;-68
2022/06/16 08:25:32;;;;;;;4.07;2.83;;;21.70;91.70;;;;;;4964846;28;20556;-63
2022/06/16 08:27:59;;;;;;;3.55;2.45;;;21.80;91.30;;;;;;4966300;28;20248;-68
2022/06/16 08:30:24;;;;;;;5.53;2.07;;;21.80;90.90;;;;;;4964783;28;20272;-66
2022/06/16 08:32:51;;;;;;;2.67;1.92;;;21.90;91.20;;;;;;4966580;28;20201;-66
2022/06/16 08:35:16;;;;;;;4.33;2.13;;;22.10;90.70;;;;;;4964335;28;20216;-65
2022/06/16 08:37:42;;;;;;;3.35;1.95;;;22.20;90.10;;;;;;4966075;28;20194;-65
2022/06/16 08:40:09;;;;;;;3.30;2.30;;;22.30;90.40;;;;;;4964291;28;20201;-66
2022/06/16 08:42:42;;;;;;;6.60;2.30;;;22.40;90.40;;;;;;4966227;28;20185;-66
2022/06/16 08:45:30;;;;;;;3.25;2.22;;;22.50;90.10;;;;;;4956542;28;20618;-79
2022/06/16 08:48:19;;;;;;;7.63;2.38;;;22.60;88.70;;;;;;4965533;28;20252;-68
2022/06/16 08:51:18;;;;;;;2.58;1.90;;;22.60;87.30;;;;;;4960921;28;20206;-66
2022/06/16 08:54:32;;;;;;;4.50;2.08;;;22.80;88.00;;;;;;4947283;29;20195;-67
2022/06/16 08:57:10;;;;;;;5.93;2.45;;;23.00;86.80;;;;;;4944654;28;20221;-67
2022/06/16 09:00:05;;;;;;;2.25;2.05;;;23.10;85.70;;;;;;4951707;28;20245;-67
2022/06/16 09:02:48;;;;;;;5.10;2.25;;;23.10;85.80;;;;;;4951772;28;20197;-65
2022/06/16 09:05:20;;;;;;;2.78;2.10;;;23.30;84.20;;;;;;4964452;28;20201;-65
2022/06/16 09:08:17;;;;;;;2.40;1.92;;;23.40;84.50;;;;;;4947112;29;20195;-64
2022/06/16 09:10:50;;;;;;;2.17;1.90;;;23.60;84.30;;;;;;4956388;28;20209;-67
2022/06/16 09:13:43;;;;;;;3.38;2.08;;;24.00;82.90;;;;;;4962775;28;20204;-66
2022/06/16 09:16:22;;;;;;;3.67;2.03;;;24.40;81.20;;;;;;4975531;28;20222;-67
2022/06/16 09:19:09;;;;;;;3.25;2.10;;;24.70;80.60;;;;;;4961986;28;20255;-66
2022/06/16 09:22:08;;;;;;;3.28;2.50;;;25.00;79.20;;;;;;4955825;28;20270;-66
2022/06/16 09:24:45;;;;;;;4.63;2.45;;;24.90;78.70;;;;;;4962253;28;20207;-66
2022/06/16 09:27:19;;;;;;;4.05;2.40;;;24.90;79.10;;;;;;4964935;28;20210;-66
2022/06/16 09:29:58;;;;;;;3.30;2.92;;;24.60;76.70;;;;;;4963566;28;20291;-66
2022/06/16 09:32:33;;;;;;;3.05;2.53;;;24.20;78.60;;;;;;4964815;28;20214;-66
2022/06/16 09:35:18;;;;;;;4.47;1.95;;;24.70;78.00;;;;;;4954817;28;20222;-66
2022/06/16 09:38:15;;;;;;;3.33;2.05;;;25.10;75.80;;;;;;4965104;28;20269;-66
2022/06/16 09:41:02;;;;;;;2.83;2.20;;;25.10;75.30;;;;;;4959412;28;20305;-66
2022/06/16 09:43:45;;;;;;;2.83;2.30;;;25.20;75.50;;;;;;4964439;28;20202;-66
2022/06/16 09:46:16;;;;;;;2.17;1.88;;;24.80;74.30;;;;;;4963527;28;20224;-67
2022/06/16 09:48:53;;;;;;;2.47;2.28;;;25.00;74.60;;;;;;4968254;28;20338;-66
2022/06/16 09:51:35;;;;;;;2.65;2.35;;;25.20;73.60;;;;;;4957906;28;20227;-66
2022/06/16 09:54:03;;;;;;;5.60;2.22;;;25.20;72.70;;;;;;4961380;28;20558;-67
2022/06/16 09:57:06;;;;;;;6.57;2.72;;;25.20;71.90;;;;;;4969641;28;20192;-67
2022/06/16 09:59:40;;;;;;;5.68;2.10;;;25.20;71.60;;;;;;4961126;28;20234;-67
2022/06/16 10:02:25;;;;;;;6.00;2.40;;;24.80;70.70;;;;;;4968773;28;20278;-67
2022/06/16 10:04:53;;;;;;;2.65;2.42;;;24.70;72.80;;;;;;4956554;28;20238;-67
2022/06/16 10:07:41;;;;;;;2.78;2.15;;;25.10;71.30;;;;;;4969319;28;20231;-66
2022/06/16 10:10:13;;;;;;;5.32;1.92;;;25.40;70.30;;;;;;4965769;28;20260;-67
2022/06/16 10:12:51;;;;;;;2.50;2.30;;;25.60;69.20;;;;;;4949843;29;20261;-67
2022/06/16 10:15:27;;;;;;;4.10;2.25;;;26.00;67.20;;;;;;4963475;28;20593;-67
2022/06/16 10:17:54;;;;;;;3.47;1.80;;;26.10;68.10;;;;;;4949119;28;20594;-67
2022/06/16 10:20:21;;;;;;;2.83;2.05;;;26.60;66.20;;;;;;4966390;28;20240;-66
2022/06/16 10:22:51;;;;;;;3.10;2.08;;;26.80;64.10;;;;;;4968895;28;20201;-67
2022/06/16 10:25:28;;;;;;;2.15;2.05;;;26.50;63.60;;;;;;4966993;28;20209;-66
2022/06/16 10:28:00;;;;;;;6.38;2.72;;;26.70;64.00;;;;;;4961899;28;20200;-66
2022/06/16 10:30:37;;;;;;;1.95;1.80;;;26.80;62.50;;;;;;4960674;28;20271;-66
2022/06/16 10:33:14;;;;;;;2.80;2.20;;;26.70;62.30;;;;;;4949535;29;20204;-67
2022/06/16 10:36:25;;;;;;;3.38;2.40;;;26.80;63.30;;;;;;4962611;28;20216;-66
2022/06/16 10:39:06;;;;;;;4.75;2.20;;;27.00;62.10;;;;;;4938448;29;20542;-67
2022/06/16 10:41:36;;;;;;;4.28;2.50;;;27.10;62.10;;;;;;4946540;29;20260;-67
2022/06/16 10:44:06;;;;;;;4.18;2.47;;;27.10;61.70;;;;;;4955304;28;20580;-65
2022/06/16 10:46:42;;;;;;;3.08;2.08;;;27.30;62.30;;;;;;4968547;28;20197;-67
2022/06/16 10:49:16;;;;;;;3.60;1.85;;;27.30;60.10;;;;;;4966383;28;20213;-67
2022/06/16 10:52:22;;;;;;;4.40;2.22;;;27.20;60.40;;;;;;4954140;28;20230;-68
2022/06/16 10:55:09;;;;;;;3.00;1.80;;;27.20;60.40;;;;;;4968458;28;20232;-65
2022/06/16 10:58:07;;;;;;;2.80;2.20;;;27.50;60.20;;;;;;4966579;28;20201;-68
2022/06/16 11:00:35;;;;;;;3.40;2.30;;;27.50;58.70;;;;;;4952491;28;20227;-68
2022/06/16 11:03:04;;;;;;;2.10;2.00;;;27.10;58.80;;;;;;4966851;28;20209;-67
2022/06/16 11:05:32;;;;;;;5.13;2.33;;;26.70;59.20;;;;;;4968674;28;20203;-69
2022/06/16 11:08:08;;;;;;;6.78;2.13;;;26.90;59.90;;;;;;4960499;28;20241;-67
2022/06/16 11:10:36;;;;;;;2.38;1.80;;;26.90;60.00;;;;;;4949605;29;20193;-66
2022/06/16 11:13:03;;;;;;;2.22;2.10;;;27.10;59.90;;;;;;4966432;28;20216;-66
2022/06/16 11:15:39;;;;;;;5.10;2.10;;;27.30;59.40;;;;;;4968604;28;20312;-66
2022/06/16 11:18:11;;;;;;;17.48;3.03;;;27.00;58.60;;;;;;4958724;28;20233;-67
2022/06/16 11:20:45;;;;;;;8.38;3.30;;;26.60;59.30;;;;;;4955869;28;20349;-71
2022/06/16 11:23:32;;;;;;;7.13;2.00;;;26.20;60.00;;;;;;4972259;28;20205;-67
2022/06/16 11:26:16;;;;;;;3.75;1.90;;;26.90;58.60;;;;;;4953697;28;20214;-67
2022/06/16 11:28:44;;;;;;;3.22;2.13;;;27.90;58.10;;;;;;4963828;28;21182;-67
2022/06/16 11:31:17;;;;;;;4.50;1.77;;;28.60;56.90;;;;;;4968005;28;20190;-67
2022/06/16 11:36:57;;;;;;;2.25;1.85;;;29.90;53.00;;;;;;4963301;28;20572;-67
2022/06/16 11:39:56;;;;;;;2.00;1.38;;;29.70;53.00;;;;;;4964824;28;20190;-67
2022/06/16 11:42:49;;;;;;;2.13;1.95;;;30.60;50.90;;;;;;4960057;28;20586;-72
2022/06/16 11:45:47;;;;;;;3.67;1.75;;;31.50;49.90;;;;;;4948290;29;20197;-66
2022/06/16 11:48:30;;;;;;;2.33;2.10;;;32.10;49.30;;;;;;4963056;28;20212;-65
2022/06/16 11:51:11;;;;;;;3.45;1.80;;;32.70;46.90;;;;;;4956860;28;20241;-65
2022/06/16 11:54:13;;;;;;;4.60;2.08;;;32.30;46.10;;;;;;4954432;28;20709;-65
2022/06/16 11:56:53;;;;;;;3.60;2.30;;;31.40;46.60;;;;;;4965607;28;20263;-65
2022/06/16 11:59:21;;;;;;;2.42;1.65;;;32.00;46.50;;;;;;4968638;28;20192;-72
2022/06/16 12:01:53;;;;;;;2.72;2.00;;;31.50;45.00;;;;;;4965217;28;20233;-66
2022/06/16 12:04:38;;;;;;;2.42;2.10;;;32.10;45.80;;;;;;4967445;28;20186;-65
2022/06/16 12:07:45;;;;;;;2.63;2.40;;;33.20;44.10;;;;;;4970758;28;20216;-70
2022/06/16 12:10:37;;;;;;;5.88;1.92;;;32.50;42.80;;;;;;4968566;28;20458;-66
2022/06/16 12:13:12;;;;;;;3.03;1.95;;;32.50;44.00;;;;;;4959409;28;20238;-66
2022/06/16 12:16:06;;;;;;;5.20;2.00;;;32.80;42.10;;;;;;4966003;28;20209;-66
2022/06/16 12:18:40;;;;;;;2.70;2.22;;;32.20;43.60;;;;;;4967659;28;20209;-66
2022/06/16 12:21:39;;;;;;;4.60;2.33;;;32.40;43.00;;;;;;4972526;28;20534;-67
2022/06/16 12:24:49;;;;;;;2.00;1.90;;;33.50;42.30;;;;;;4966576;28;20304;-66
2022/06/16 12:27:22;;;;;;;2.50;2.15;;;34.40;41.50;;;;;;4972893;28;20790;-66
2022/06/16 12:30:14;;;;;;;2.10;1.98;;;34.80;40.90;;;;;;4977643;28;20234;-66
2022/06/16 12:33:03;;;;;;;2.50;1.98;;;34.80;40.30;;;;;;4970189;28;21011;-66
2022/06/16 12:35:51;;;;;;;2.38;1.88;;;35.00;39.00;;;;;;4969665;28;20690;-65
2022/06/16 12:38:53;;;;;;;4.78;2.42;;;34.80;39.90;;;;;;4969096;28;20225;-67
2022/06/16 12:41:28;;;;;;;4.18;2.25;;;34.50;39.90;;;;;;4972167;28;20211;-68
2022/06/16 12:44:00;;;;;;;2.10;1.67;;;34.10;40.20;;;;;;4973940;28;20228;-67
2022/06/16 12:46:33;;;;;;;4.35;1.98;;;34.00;40.00;;;;;;4963552;28;20205;-65
2022/06/16 12:49:15;;;;;;;3.67;2.00;;;34.00;39.90;;;;;;4946597;29;20230;-68
2022/06/16 12:51:45;;;;;;;3.28;2.10;;;33.50;39.70;;;;;;4956708;28;20198;-66
2022/06/16 12:54:20;;;;;;;4.05;2.55;;;32.10;40.90;;;;;;4964842;28;20205;-65
2022/06/16 12:56:55;;;;;;;3.53;2.35;;;32.60;40.20;;;;;;4974377;28;20229;-67
2022/06/16 12:59:50;;;;;;;2.83;1.92;;;33.10;39.70;;;;;;4972948;28;20184;-67
2022/06/16 13:02:20;;;;;;;2.33;1.48;;;34.20;39.10;;;;;;4972492;28;20762;-67
2022/06/16 13:04:48;;;;;;;3.25;1.85;;;32.40;39.50;;;;;;4954730;28;20192;-66
2022/06/16 13:07:18;;;;;;;2.75;2.40;;;30.40;41.60;;;;;;4967899;28;21037;-66
2022/06/16 13:09:44;;;;;;;5.65;2.05;;;30.50;42.10;;;;;;4971251;28;20232;-68
2022/06/16 13:12:34;;;;;;;4.10;2.13;;;31.10;42.70;;;;;;4970870;28;20208;-70
2022/06/16 13:15:20;;;;;;;4.20;2.17;;;32.30;40.10;;;;;;4973865;28;20437;-71
2022/06/16 13:17:57;;;;;;;2.45;2.22;;;33.20;39.80;;;;;;4970931;28;20580;-66
2022/06/16 13:20:27;;;;;;;2.88;2.10;;;33.50;39.80;;;;;;4967555;28;20184;-66
2022/06/16 13:23:10;;;;;;;2.63;1.75;;;34.40;39.60;;;;;;4970100;28;20201;-65
2022/06/16 13:25:50;;;;;;;3.40;2.10;;;34.50;37.60;;;;;;4973501;28;20476;-69
2022/06/16 13:28:34;;;;;;;2.10;2.00;;;35.20;37.70;;;;;;4974013;28;20188;-66
2022/06/16 13:31:09;;;;;;;2.30;1.95;;;35.90;37.20;;;;;;4971454;28;20209;-65
2022/06/16 13:33:54;;;;;;;4.03;2.08;;;35.10;37.00;;;;;;4972911;28;20183;-68
2022/06/16 13:36:22;;;;;;;2.72;2.45;;;32.30;38.80;;;;;;4968892;28;20208;-67
2022/06/16 13:38:49;;;;;;;2.78;1.80;;;32.40;40.10;;;;;;4970782;28;20196;-65